Sopris, Colorado
Current Conditions -  °F | °C
As of 6:54 PM on Thursday 20 Nov 2014 (Local Time) from KTAD Reporting Station
Broken Clouds Broken Clouds  
Wind Chill: 29°   Ceiling: 12000
Heat Index: 35°   Visibility: 10mi
Dew Point: 25°   Wind: 8mph
Humidity: 67%   Direction: 300°WNW
Pressure: 30"   Gusts: NA
Location:  37.1661°N, 104.486°W
Report Text: KTAD 210154Z AUTO 30007KT 10SM SCT095 BKN120 02/M04 A3000 RMK AO2 SLP173 T00171039
Loading
Personal Weather Stations






























Interactive Weather Map New forecast layout! Learn more

10-Day Weather Forecast

Advertisements
Track Severe Weather on mobile